sensor_id;sensor_type;location;lat;lon;timestamp;temperature;humidity
17988;DHT22;9119;50.932;5.342;2023-04-24T00:00:09;10.50;99.90
17988;DHT22;9119;50.932;5.342;2023-04-24T00:02:35;10.60;99.90
17988;DHT22;9119;50.932;5.342;2023-04-24T00:05:05;10.70;99.90
17988;DHT22;9119;50.932;5.342;2023-04-24T00:07:31;10.70;99.90
17988;DHT22;9119;50.932;5.342;2023-04-24T00:09:57;10.70;99.90
17988;DHT22;9119;50.932;5.342;2023-04-24T00:12:23;10.60;99.90
17988;DHT22;9119;50.932;5.342;2023-04-24T00:14:49;10.60;99.90
17988;DHT22;9119;50.932;5.342;2023-04-24T00:17:15;10.70;99.90
17988;DHT22;9119;50.932;5.342;2023-04-24T00:19:41;10.70;99.90
17988;DHT22;9119;50.932;5.342;2023-04-24T00:22:07;10.60;99.90
17988;DHT22;9119;50.932;5.342;2023-04-24T00:24:32;10.50;99.90
17988;DHT22;9119;50.932;5.342;2023-04-24T00:26:58;10.50;99.90
17988;DHT22;9119;50.932;5.342;2023-04-24T00:29:24;10.50;99.90
17988;DHT22;9119;50.932;5.342;2023-04-24T00:31:50;10.40;99.90
17988;DHT22;9119;50.932;5.342;2023-04-24T00:34:16;10.50;99.90
17988;DHT22;9119;50.932;5.342;2023-04-24T00:36:41;10.60;99.90
17988;DHT22;9119;50.932;5.342;2023-04-24T00:39:07;10.60;99.90
17988;DHT22;9119;50.932;5.342;2023-04-24T00:41:34;10.60;99.90
17988;DHT22;9119;50.932;5.342;2023-04-24T00:43:59;10.50;99.90
17988;DHT22;9119;50.932;5.342;2023-04-24T00:46:25;10.50;99.90
17988;DHT22;9119;50.932;5.342;2023-04-24T00:48:51;10.50;99.90
17988;DHT22;9119;50.932;5.342;2023-04-24T00:51:17;10.50;99.90
17988;DHT22;9119;50.932;5.342;2023-04-24T00:53:43;10.50;99.90
17988;DHT22;9119;50.932;5.342;2023-04-24T00:56:09;10.50;99.90
17988;DHT22;9119;50.932;5.342;2023-04-24T00:58:35;10.50;99.90
17988;DHT22;9119;50.932;5.342;2023-04-24T01:01:02;10.60;99.90
17988;DHT22;9119;50.932;5.342;2023-04-24T01:03:30;10.60;99.90
17988;DHT22;9119;50.932;5.342;2023-04-24T01:05:57;10.60;99.90
17988;DHT22;9119;50.932;5.342;2023-04-24T01:08:24;10.40;99.90
17988;DHT22;9119;50.932;5.342;2023-04-24T01:10:52;10.50;99.90
17988;DHT22;9119;50.932;5.342;2023-04-24T01:13:19;10.50;99.90
17988;DHT22;9119;50.932;5.342;2023-04-24T01:15:45;10.50;99.90
17988;DHT22;9119;50.932;5.342;2023-04-24T01:18:11;10.50;99.90
17988;DHT22;9119;50.932;5.342;2023-04-24T01:20:40;10.50;99.90
17988;DHT22;9119;50.932;5.342;2023-04-24T01:23:07;10.50;99.90
17988;DHT22;9119;50.932;5.342;2023-04-24T01:25:32;10.50;99.90
17988;DHT22;9119;50.932;5.342;2023-04-24T01:27:59;10.40;99.90
17988;DHT22;9119;50.932;5.342;2023-04-24T01:30:25;10.40;99.90
17988;DHT22;9119;50.932;5.342;2023-04-24T01:32:51;10.40;99.90
17988;DHT22;9119;50.932;5.342;2023-04-24T01:35:18;10.50;99.90
17988;DHT22;9119;50.932;5.342;2023-04-24T01:37:43;10.40;99.90
17988;DHT22;9119;50.932;5.342;2023-04-24T01:40:09;10.40;99.90
17988;DHT22;9119;50.932;5.342;2023-04-24T01:42:35;10.50;99.90
17988;DHT22;9119;50.932;5.342;2023-04-24T01:45:02;10.50;99.90
17988;DHT22;9119;50.932;5.342;2023-04-24T01:47:30;10.40;99.90
17988;DHT22;9119;50.932;5.342;2023-04-24T01:49:56;10.30;99.90
17988;DHT22;9119;50.932;5.342;2023-04-24T01:52:22;10.30;99.90
17988;DHT22;9119;50.932;5.342;2023-04-24T01:54:48;10.40;99.90
17988;DHT22;9119;50.932;5.342;2023-04-24T01:57:14;10.40;99.90
17988;DHT22;9119;50.932;5.342;2023-04-24T01:59:41;10.50;99.90
17988;DHT22;9119;50.932;5.342;2023-04-24T02:02:07;10.40;99.90
17988;DHT22;9119;50.932;5.342;2023-04-24T02:04:33;10.40;99.90
17988;DHT22;9119;50.932;5.342;2023-04-24T02:06:59;10.30;99.90
17988;DHT22;9119;50.932;5.342;2023-04-24T02:09:24;10.40;99.90
17988;DHT22;9119;50.932;5.342;2023-04-24T02:11:50;10.30;99.90
17988;DHT22;9119;50.932;5.342;2023-04-24T02:14:16;10.30;99.90
17988;DHT22;9119;50.932;5.342;2023-04-24T02:16:42;10.10;99.90
17988;DHT22;9119;50.932;5.342;2023-04-24T02:19:09;10.10;99.90
17988;DHT22;9119;50.932;5.342;2023-04-24T02:21:34;10.10;99.90
17988;DHT22;9119;50.932;5.342;2023-04-24T02:24:00;10.10;99.90
17988;DHT22;9119;50.932;5.342;2023-04-24T02:26:26;10.10;99.90
17988;DHT22;9119;50.932;5.342;2023-04-24T02:28:52;10.10;99.90
17988;DHT22;9119;50.932;5.342;2023-04-24T02:31:17;10.10;99.90
17988;DHT22;9119;50.932;5.342;2023-04-24T02:33:43;10.10;99.90
17988;DHT22;9119;50.932;5.342;2023-04-24T02:36:09;10.10;99.90
17988;DHT22;9119;50.932;5.342;2023-04-24T02:38:34;10.00;99.90
17988;DHT22;9119;50.932;5.342;2023-04-24T02:41:00;10.00;99.90
17988;DHT22;9119;50.932;5.342;2023-04-24T02:43:27;10.10;99.90
17988;DHT22;9119;50.932;5.342;2023-04-24T02:45:53;10.10;99.90
17988;DHT22;9119;50.932;5.342;2023-04-24T02:48:19;10.00;99.90
17988;DHT22;9119;50.932;5.342;2023-04-24T02:50:46;9.90;99.90
17988;DHT22;9119;50.932;5.342;2023-04-24T02:53:11;10.00;99.90
17988;DHT22;9119;50.932;5.342;2023-04-24T02:55:37;10.00;99.90
17988;DHT22;9119;50.932;5.342;2023-04-24T02:58:03;10.00;99.90
17988;DHT22;9119;50.932;5.342;2023-04-24T03:00:28;9.90;99.90
17988;DHT22;9119;50.932;5.342;2023-04-24T03:02:55;10.00;99.90
17988;DHT22;9119;50.932;5.342;2023-04-24T03:05:21;10.00;99.90
17988;DHT22;9119;50.932;5.342;2023-04-24T03:07:47;10.00;99.90
17988;DHT22;9119;50.932;5.342;2023-04-24T03:10:13;9.90;99.90
17988;DHT22;9119;50.932;5.342;2023-04-24T03:12:39;9.70;99.90
17988;DHT22;9119;50.932;5.342;2023-04-24T03:15:05;9.60;99.90
17988;DHT22;9119;50.932;5.342;2023-04-24T03:17:31;9.70;99.90
17988;DHT22;9119;50.932;5.342;2023-04-24T03:19:56;9.70;99.90
17988;DHT22;9119;50.932;5.342;2023-04-24T03:22:22;9.70;99.90
17988;DHT22;9119;50.932;5.342;2023-04-24T03:24:48;9.70;99.90
17988;DHT22;9119;50.932;5.342;2023-04-24T03:27:13;9.70;99.90
17988;DHT22;9119;50.932;5.342;2023-04-24T03:29:39;9.60;99.90
17988;DHT22;9119;50.932;5.342;2023-04-24T03:32:05;9.70;99.90
17988;DHT22;9119;50.932;5.342;2023-04-24T03:34:30;9.70;99.90
17988;DHT22;9119;50.932;5.342;2023-04-24T03:36:56;9.60;99.90
17988;DHT22;9119;50.932;5.342;2023-04-24T03:39:21;9.60;99.90
17988;DHT22;9119;50.932;5.342;2023-04-24T03:41:47;9.60;99.90
17988;DHT22;9119;50.932;5.342;2023-04-24T03:44:13;9.60;99.90
17988;DHT22;9119;50.932;5.342;2023-04-24T03:46:38;9.70;99.90
17988;DHT22;9119;50.932;5.342;2023-04-24T03:49:04;9.80;99.90
17988;DHT22;9119;50.932;5.342;2023-04-24T03:51:30;9.70;99.90
17988;DHT22;9119;50.932;5.342;2023-04-24T03:53:56;9.70;99.90
17988;DHT22;9119;50.932;5.342;2023-04-24T03:56:22;9.70;99.90
17988;DHT22;9119;50.932;5.342;2023-04-24T03:58:48;9.70;99.90
17988;DHT22;9119;50.932;5.342;2023-04-24T04:01:14;9.80;99.90
17988;DHT22;9119;50.932;5.342;2023-04-24T04:03:41;9.70;99.90
17988;DHT22;9119;50.932;5.342;2023-04-24T04:06:07;9.60;99.90
17988;DHT22;9119;50.932;5.342;2023-04-24T04:08:32;9.60;99.90
17988;DHT22;9119;50.932;5.342;2023-04-24T04:10:58;9.70;99.90
17988;DHT22;9119;50.932;5.342;2023-04-24T04:13:24;9.70;99.90
17988;DHT22;9119;50.932;5.342;2023-04-24T04:15:49;9.70;99.90
17988;DHT22;9119;50.932;5.342;2023-04-24T04:18:15;9.70;99.90
17988;DHT22;9119;50.932;5.342;2023-04-24T04:20:41;9.60;99.90
17988;DHT22;9119;50.932;5.342;2023-04-24T04:23:07;9.60;99.90
17988;DHT22;9119;50.932;5.342;2023-04-24T04:25:32;9.60;99.90
17988;DHT22;9119;50.932;5.342;2023-04-24T04:27:58;9.60;99.90
17988;DHT22;9119;50.932;5.342;2023-04-24T04:30:24;9.60;99.90
17988;DHT22;9119;50.932;5.342;2023-04-24T04:32:51;9.60;99.90
17988;DHT22;9119;50.932;5.342;2023-04-24T04:35:17;9.50;99.90
17988;DHT22;9119;50.932;5.342;2023-04-24T04:37:42;9.40;99.90
17988;DHT22;9119;50.932;5.342;2023-04-24T04:40:08;9.40;99.90
17988;DHT22;9119;50.932;5.342;2023-04-24T04:42:37;9.40;99.90
17988;DHT22;9119;50.932;5.342;2023-04-24T04:45:09;9.40;99.90
17988;DHT22;9119;50.932;5.342;2023-04-24T04:47:36;9.30;99.90
17988;DHT22;9119;50.932;5.342;2023-04-24T04:50:02;9.30;99.90
17988;DHT22;9119;50.932;5.342;2023-04-24T04:52:29;9.20;99.90
17988;DHT22;9119;50.932;5.342;2023-04-24T04:54:55;9.20;99.90
17988;DHT22;9119;50.932;5.342;2023-04-24T04:57:20;9.30;99.90
17988;DHT22;9119;50.932;5.342;2023-04-24T04:59:46;9.30;99.90
17988;DHT22;9119;50.932;5.342;2023-04-24T05:02:12;9.30;99.90
17988;DHT22;9119;50.932;5.342;2023-04-24T05:04:38;9.30;99.90
17988;DHT22;9119;50.932;5.342;2023-04-24T05:07:03;9.20;99.90
17988;DHT22;9119;50.932;5.342;2023-04-24T05:09:29;9.20;99.90
17988;DHT22;9119;50.932;5.342;2023-04-24T05:11:55;9.20;99.90
17988;DHT22;9119;50.932;5.342;2023-04-24T05:14:21;9.20;99.90
17988;DHT22;9119;50.932;5.342;2023-04-24T05:16:47;9.20;99.90
17988;DHT22;9119;50.932;5.342;2023-04-24T05:19:13;9.30;99.90
17988;DHT22;9119;50.932;5.342;2023-04-24T05:21:42;9.30;99.90
17988;DHT22;9119;50.932;5.342;2023-04-24T05:24:07;9.30;99.90
17988;DHT22;9119;50.932;5.342;2023-04-24T05:26:33;9.40;99.90
17988;DHT22;9119;50.932;5.342;2023-04-24T05:28:59;9.40;99.90
17988;DHT22;9119;50.932;5.342;2023-04-24T05:31:25;9.40;99.90
17988;DHT22;9119;50.932;5.342;2023-04-24T05:33:51;9.40;99.90
17988;DHT22;9119;50.932;5.342;2023-04-24T05:36:16;9.40;99.90
17988;DHT22;9119;50.932;5.342;2023-04-24T05:38:42;9.20;99.90
17988;DHT22;9119;50.932;5.342;2023-04-24T05:41:08;9.20;99.90
17988;DHT22;9119;50.932;5.342;2023-04-24T05:43:33;9.20;99.90
17988;DHT22;9119;50.932;5.342;2023-04-24T05:45:59;9.10;99.90
17988;DHT22;9119;50.932;5.342;2023-04-24T05:48:25;9.20;99.90
17988;DHT22;9119;50.932;5.342;2023-04-24T05:50:51;9.10;99.90
17988;DHT22;9119;50.932;5.342;2023-04-24T05:53:18;9.10;99.90
17988;DHT22;9119;50.932;5.342;2023-04-24T05:55:44;8.90;99.90
17988;DHT22;9119;50.932;5.342;2023-04-24T05:58:10;8.90;99.90
17988;DHT22;9119;50.932;5.342;2023-04-24T06:00:36;8.80;99.90
17988;DHT22;9119;50.932;5.342;2023-04-24T06:03:02;8.80;99.90
17988;DHT22;9119;50.932;5.342;2023-04-24T06:05:29;8.80;99.90
17988;DHT22;9119;50.932;5.342;2023-04-24T06:07:55;8.70;99.90
17988;DHT22;9119;50.932;5.342;2023-04-24T06:10:21;8.80;99.90
17988;DHT22;9119;50.932;5.342;2023-04-24T06:12:47;8.90;99.90
17988;DHT22;9119;50.932;5.342;2023-04-24T06:15:12;8.70;99.90
17988;DHT22;9119;50.932;5.342;2023-04-24T06:17:38;8.70;99.90
17988;DHT22;9119;50.932;5.342;2023-04-24T06:20:05;8.60;99.90
17988;DHT22;9119;50.932;5.342;2023-04-24T06:22:32;8.70;99.90
17988;DHT22;9119;50.932;5.342;2023-04-24T06:24:57;8.60;99.90
17988;DHT22;9119;50.932;5.342;2023-04-24T06:27:23;8.60;99.90
17988;DHT22;9119;50.932;5.342;2023-04-24T06:29:49;8.70;99.90
17988;DHT22;9119;50.932;5.342;2023-04-24T06:32:22;8.60;99.90
17988;DHT22;9119;50.932;5.342;2023-04-24T06:34:47;8.60;99.90
17988;DHT22;9119;50.932;5.342;2023-04-24T06:37:14;8.50;99.90
17988;DHT22;9119;50.932;5.342;2023-04-24T06:39:40;8.60;99.90
17988;DHT22;9119;50.932;5.342;2023-04-24T06:42:06;8.60;99.90
17988;DHT22;9119;50.932;5.342;2023-04-24T06:44:33;8.50;99.90
17988;DHT22;9119;50.932;5.342;2023-04-24T06:47:03;8.50;99.90
17988;DHT22;9119;50.932;5.342;2023-04-24T06:49:28;8.50;99.90
17988;DHT22;9119;50.932;5.342;2023-04-24T06:51:54;8.60;99.90
17988;DHT22;9119;50.932;5.342;2023-04-24T06:54:20;8.50;99.90
17988;DHT22;9119;50.932;5.342;2023-04-24T06:56:45;8.50;99.90
17988;DHT22;9119;50.932;5.342;2023-04-24T06:59:13;8.50;99.90
17988;DHT22;9119;50.932;5.342;2023-04-24T07:01:38;8.60;99.90
17988;DHT22;9119;50.932;5.342;2023-04-24T07:04:04;8.60;99.90
17988;DHT22;9119;50.932;5.342;2023-04-24T07:06:30;8.60;99.90
17988;DHT22;9119;50.932;5.342;2023-04-24T07:08:55;8.60;99.90
17988;DHT22;9119;50.932;5.342;2023-04-24T07:11:21;8.60;99.90
17988;DHT22;9119;50.932;5.342;2023-04-24T07:13:47;8.60;99.90
17988;DHT22;9119;50.932;5.342;2023-04-24T07:16:13;8.60;99.90
17988;DHT22;9119;50.932;5.342;2023-04-24T07:18:38;8.60;99.90
17988;DHT22;9119;50.932;5.342;2023-04-24T07:21:05;8.80;99.90
17988;DHT22;9119;50.932;5.342;2023-04-24T07:23:31;8.90;99.90
17988;DHT22;9119;50.932;5.342;2023-04-24T07:25:57;8.90;99.90
17988;DHT22;9119;50.932;5.342;2023-04-24T07:28:23;9.00;99.90
17988;DHT22;9119;50.932;5.342;2023-04-24T07:30:48;9.00;99.90
17988;DHT22;9119;50.932;5.342;2023-04-24T07:33:14;9.00;99.90
17988;DHT22;9119;50.932;5.342;2023-04-24T07:35:40;9.10;99.90
17988;DHT22;9119;50.932;5.342;2023-04-24T07:38:05;9.10;99.90
17988;DHT22;9119;50.932;5.342;2023-04-24T07:40:31;9.20;99.90
17988;DHT22;9119;50.932;5.342;2023-04-24T07:42:57;9.20;99.90
17988;DHT22;9119;50.932;5.342;2023-04-24T07:45:22;9.20;99.90
17988;DHT22;9119;50.932;5.342;2023-04-24T07:47:50;9.10;99.90
17988;DHT22;9119;50.932;5.342;2023-04-24T07:50:16;9.00;99.90
17988;DHT22;9119;50.932;5.342;2023-04-24T07:52:41;8.90;99.90
17988;DHT22;9119;50.932;5.342;2023-04-24T07:55:07;8.90;99.90
17988;DHT22;9119;50.932;5.342;2023-04-24T07:57:33;8.80;99.90
17988;DHT22;9119;50.932;5.342;2023-04-24T07:59:59;8.70;99.90
17988;DHT22;9119;50.932;5.342;2023-04-24T08:02:25;8.80;99.90
17988;DHT22;9119;50.932;5.342;2023-04-24T08:04:54;8.70;99.90
17988;DHT22;9119;50.932;5.342;2023-04-24T08:07:20;8.80;99.90
17988;DHT22;9119;50.932;5.342;2023-04-24T08:09:46;8.80;99.90
17988;DHT22;9119;50.932;5.342;2023-04-24T08:12:12;8.80;99.90
17988;DHT22;9119;50.932;5.342;2023-04-24T08:14:37;8.80;99.90
17988;DHT22;9119;50.932;5.342;2023-04-24T08:17:03;8.80;99.90
17988;DHT22;9119;50.932;5.342;2023-04-24T08:19:29;8.80;99.90
17988;DHT22;9119;50.932;5.342;2023-04-24T08:21:55;8.90;99.90
17988;DHT22;9119;50.932;5.342;2023-04-24T08:24:20;9.10;99.90
17988;DHT22;9119;50.932;5.342;2023-04-24T08:26:46;8.90;99.90
17988;DHT22;9119;50.932;5.342;2023-04-24T08:29:15;9.00;99.90
17988;DHT22;9119;50.932;5.342;2023-04-24T08:31:41;9.10;99.90
17988;DHT22;9119;50.932;5.342;2023-04-24T08:34:07;9.20;99.90
17988;DHT22;9119;50.932;5.342;2023-04-24T08:36:33;9.20;99.90
17988;DHT22;9119;50.932;5.342;2023-04-24T08:38:59;9.30;99.90
17988;DHT22;9119;50.932;5.342;2023-04-24T08:41:24;9.40;99.90
17988;DHT22;9119;50.932;5.342;2023-04-24T08:43:51;9.40;99.90
17988;DHT22;9119;50.932;5.342;2023-04-24T08:46:18;9.40;99.90
17988;DHT22;9119;50.932;5.342;2023-04-24T08:48:45;9.40;99.90
17988;DHT22;9119;50.932;5.342;2023-04-24T08:51:11;9.50;99.90
17988;DHT22;9119;50.932;5.342;2023-04-24T08:53:37;9.70;99.90
17988;DHT22;9119;50.932;5.342;2023-04-24T08:56:03;9.70;99.90
17988;DHT22;9119;50.932;5.342;2023-04-24T08:58:29;9.80;99.90
17988;DHT22;9119;50.932;5.342;2023-04-24T09:00:57;9.80;99.90
17988;DHT22;9119;50.932;5.342;2023-04-24T09:03:23;9.80;99.90
17988;DHT22;9119;50.932;5.342;2023-04-24T09:05:50;9.90;99.90
17988;DHT22;9119;50.932;5.342;2023-04-24T09:08:19;9.90;99.90
17988;DHT22;9119;50.932;5.342;2023-04-24T09:10:45;9.80;99.90
17988;DHT22;9119;50.932;5.342;2023-04-24T09:13:11;9.60;99.90
17988;DHT22;9119;50.932;5.342;2023-04-24T09:15:40;9.40;99.90
17988;DHT22;9119;50.932;5.342;2023-04-24T09:18:06;9.40;99.90
17988;DHT22;9119;50.932;5.342;2023-04-24T09:20:32;9.30;99.90
17988;DHT22;9119;50.932;5.342;2023-04-24T09:22:58;9.40;99.90
17988;DHT22;9119;50.932;5.342;2023-04-24T09:25:32;9.20;99.90
17988;DHT22;9119;50.932;5.342;2023-04-24T09:28:03;9.20;99.90
17988;DHT22;9119;50.932;5.342;2023-04-24T09:30:29;9.30;99.90
17988;DHT22;9119;50.932;5.342;2023-04-24T09:33:14;9.50;99.90
17988;DHT22;9119;50.932;5.342;2023-04-24T09:35:41;9.60;99.90
17988;DHT22;9119;50.932;5.342;2023-04-24T09:38:08;9.90;99.90
17988;DHT22;9119;50.932;5.342;2023-04-24T09:40:35;10.20;99.90
17988;DHT22;9119;50.932;5.342;2023-04-24T09:43:01;10.40;99.90
17988;DHT22;9119;50.932;5.342;2023-04-24T09:45:38;10.30;99.90
17988;DHT22;9119;50.932;5.342;2023-04-24T09:48:05;10.50;99.90
17988;DHT22;9119;50.932;5.342;2023-04-24T09:50:32;10.50;99.90
17988;DHT22;9119;50.932;5.342;2023-04-24T09:53:02;10.60;99.90
17988;DHT22;9119;50.932;5.342;2023-04-24T09:55:29;10.70;99.90
17988;DHT22;9119;50.932;5.342;2023-04-24T09:57:57;11.00;99.90
17988;DHT22;9119;50.932;5.342;2023-04-24T10:00:23;11.20;99.90
17988;DHT22;9119;50.932;5.342;2023-04-24T10:02:54;11.20;99.90
17988;DHT22;9119;50.932;5.342;2023-04-24T10:05:23;11.30;99.90
17988;DHT22;9119;50.932;5.342;2023-04-24T10:07:49;11.20;99.90
17988;DHT22;9119;50.932;5.342;2023-04-24T10:10:14;11.30;99.90
17988;DHT22;9119;50.932;5.342;2023-04-24T10:12:40;11.30;99.90
17988;DHT22;9119;50.932;5.342;2023-04-24T10:15:09;11.40;99.90
17988;DHT22;9119;50.932;5.342;2023-04-24T10:17:35;11.10;99.90
17988;DHT22;9119;50.932;5.342;2023-04-24T10:20:01;11.20;99.90
17988;DHT22;9119;50.932;5.342;2023-04-24T10:22:28;11.20;99.90
17988;DHT22;9119;50.932;5.342;2023-04-24T10:24:56;11.10;99.90
17988;DHT22;9119;50.932;5.342;2023-04-24T10:27:23;11.10;99.90
17988;DHT22;9119;50.932;5.342;2023-04-24T10:29:51;11.20;99.90
17988;DHT22;9119;50.932;5.342;2023-04-24T10:32:18;11.10;99.90
17988;DHT22;9119;50.932;5.342;2023-04-24T10:34:44;11.10;99.90
17988;DHT22;9119;50.932;5.342;2023-04-24T10:37:10;11.20;99.90
17988;DHT22;9119;50.932;5.342;2023-04-24T10:39:36;11.40;99.90
17988;DHT22;9119;50.932;5.342;2023-04-24T10:42:14;11.70;99.90
17988;DHT22;9119;50.932;5.342;2023-04-24T10:44:41;11.80;99.90
17988;DHT22;9119;50.932;5.342;2023-04-24T10:47:12;12.00;99.90
17988;DHT22;9119;50.932;5.342;2023-04-24T10:49:38;12.00;99.90
17988;DHT22;9119;50.932;5.342;2023-04-24T10:52:04;11.90;99.90
17988;DHT22;9119;50.932;5.342;2023-04-24T10:54:46;11.80;99.90
17988;DHT22;9119;50.932;5.342;2023-04-24T10:59:52;11.60;99.90
17988;DHT22;9119;50.932;5.342;2023-04-24T11:02:38;11.50;99.90
17988;DHT22;9119;50.932;5.342;2023-04-24T11:05:04;11.40;99.90
17988;DHT22;9119;50.932;5.342;2023-04-24T11:10:54;11.30;99.90
17988;DHT22;9119;50.932;5.342;2023-04-24T11:13:22;11.30;99.90
17988;DHT22;9119;50.932;5.342;2023-04-24T11:19:04;11.20;99.90
17988;DHT22;9119;50.932;5.342;2023-04-24T11:21:43;11.20;99.90
17988;DHT22;9119;50.932;5.342;2023-04-24T11:27:12;11.30;99.90
17988;DHT22;9119;50.932;5.342;2023-04-24T11:34:48;11.30;99.90
17988;DHT22;9119;50.932;5.342;2023-04-24T11:37:14;11.60;99.90
17988;DHT22;9119;50.932;5.342;2023-04-24T11:39:40;11.60;99.90
17988;DHT22;9119;50.932;5.342;2023-04-24T11:42:07;11.60;99.90
17988;DHT22;9119;50.932;5.342;2023-04-24T11:44:36;11.60;99.90
17988;DHT22;9119;50.932;5.342;2023-04-24T11:47:05;11.80;99.90
17988;DHT22;9119;50.932;5.342;2023-04-24T11:49:32;12.10;99.90
17988;DHT22;9119;50.932;5.342;2023-04-24T11:52:00;12.40;99.90
17988;DHT22;9119;50.932;5.342;2023-04-24T11:54:27;12.40;99.90
17988;DHT22;9119;50.932;5.342;2023-04-24T11:56:52;12.20;99.90
17988;DHT22;9119;50.932;5.342;2023-04-24T11:59:18;12.10;99.90
17988;DHT22;9119;50.932;5.342;2023-04-24T12:01:47;12.10;99.90
17988;DHT22;9119;50.932;5.342;2023-04-24T12:04:15;12.00;99.90
17988;DHT22;9119;50.932;5.342;2023-04-24T12:07:03;12.30;99.90
17988;DHT22;9119;50.932;5.342;2023-04-24T12:09:57;12.30;99.90
17988;DHT22;9119;50.932;5.342;2023-04-24T12:12:25;12.90;99.90
17988;DHT22;9119;50.932;5.342;2023-04-24T12:14:58;13.80;99.90
17988;DHT22;9119;50.932;5.342;2023-04-24T12:17:29;14.40;99.90
17988;DHT22;9119;50.932;5.342;2023-04-24T12:20:06;13.80;99.90
17988;DHT22;9119;50.932;5.342;2023-04-24T12:22:55;13.40;99.90
17988;DHT22;9119;50.932;5.342;2023-04-24T12:25:24;13.20;99.90
17988;DHT22;9119;50.932;5.342;2023-04-24T12:30:33;13.60;99.90
17988;DHT22;9119;50.932;5.342;2023-04-24T12:33:00;13.60;99.90
17988;DHT22;9119;50.932;5.342;2023-04-24T12:35:31;13.20;99.90
17988;DHT22;9119;50.932;5.342;2023-04-24T12:38:15;13.10;99.90
17988;DHT22;9119;50.932;5.342;2023-04-24T12:40:42;12.70;99.90
17988;DHT22;9119;50.932;5.342;2023-04-24T12:43:19;12.50;99.90
17988;DHT22;9119;50.932;5.342;2023-04-24T12:45:47;12.60;99.90
17988;DHT22;9119;50.932;5.342;2023-04-24T12:48:14;12.60;99.90
17988;DHT22;9119;50.932;5.342;2023-04-24T12:50:40;12.80;99.90
17988;DHT22;9119;50.932;5.342;2023-04-24T12:53:07;12.70;99.90
17988;DHT22;9119;50.932;5.342;2023-04-24T12:55:34;12.80;99.90
17988;DHT22;9119;50.932;5.342;2023-04-24T12:58:00;12.80;99.90
17988;DHT22;9119;50.932;5.342;2023-04-24T13:00:25;12.70;99.90
17988;DHT22;9119;50.932;5.342;2023-04-24T13:02:51;12.80;99.90
17988;DHT22;9119;50.932;5.342;2023-04-24T13:05:17;12.50;99.90
17988;DHT22;9119;50.932;5.342;2023-04-24T13:07:43;12.60;99.90
17988;DHT22;9119;50.932;5.342;2023-04-24T13:10:09;12.60;99.90
17988;DHT22;9119;50.932;5.342;2023-04-24T13:12:35;12.60;99.90
17988;DHT22;9119;50.932;5.342;2023-04-24T13:15:01;12.70;99.90
17988;DHT22;9119;50.932;5.342;2023-04-24T13:17:26;12.60;99.90
17988;DHT22;9119;50.932;5.342;2023-04-24T13:19:54;12.70;99.90
17988;DHT22;9119;50.932;5.342;2023-04-24T13:22:20;12.80;99.90
17988;DHT22;9119;50.932;5.342;2023-04-24T13:24:46;13.10;99.90
17988;DHT22;9119;50.932;5.342;2023-04-24T13:27:14;13.20;99.90
17988;DHT22;9119;50.932;5.342;2023-04-24T13:29:40;13.30;99.90
17988;DHT22;9119;50.932;5.342;2023-04-24T13:32:06;13.00;99.90
17988;DHT22;9119;50.932;5.342;2023-04-24T13:34:32;13.10;99.90
17988;DHT22;9119;50.932;5.342;2023-04-24T13:36:58;12.90;99.90
17988;DHT22;9119;50.932;5.342;2023-04-24T13:39:24;12.70;99.90
17988;DHT22;9119;50.932;5.342;2023-04-24T13:41:51;12.80;99.90
17988;DHT22;9119;50.932;5.342;2023-04-24T13:44:18;12.90;99.90
17988;DHT22;9119;50.932;5.342;2023-04-24T13:46:46;13.00;99.90
17988;DHT22;9119;50.932;5.342;2023-04-24T13:49:15;12.80;99.90
17988;DHT22;9119;50.932;5.342;2023-04-24T13:51:42;12.70;99.90
17988;DHT22;9119;50.932;5.342;2023-04-24T13:54:08;12.60;99.90
17988;DHT22;9119;50.932;5.342;2023-04-24T13:56:34;12.90;99.90
17988;DHT22;9119;50.932;5.342;2023-04-24T13:59:00;13.00;99.90
17988;DHT22;9119;50.932;5.342;2023-04-24T14:01:25;13.00;99.90
17988;DHT22;9119;50.932;5.342;2023-04-24T14:03:52;13.10;99.90
17988;DHT22;9119;50.932;5.342;2023-04-24T14:06:19;13.00;99.90
17988;DHT22;9119;50.932;5.342;2023-04-24T14:08:45;13.00;99.90
17988;DHT22;9119;50.932;5.342;2023-04-24T14:11:11;13.20;99.90
17988;DHT22;9119;50.932;5.342;2023-04-24T14:13:37;13.10;99.90
17988;DHT22;9119;50.932;5.342;2023-04-24T14:16:04;13.30;99.90
17988;DHT22;9119;50.932;5.342;2023-04-24T14:18:30;13.30;99.90
17988;DHT22;9119;50.932;5.342;2023-04-24T14:20:55;13.10;99.90
17988;DHT22;9119;50.932;5.342;2023-04-24T14:23:21;13.30;99.90
17988;DHT22;9119;50.932;5.342;2023-04-24T14:25:47;13.50;99.90
17988;DHT22;9119;50.932;5.342;2023-04-24T14:28:16;13.60;99.90
17988;DHT22;9119;50.932;5.342;2023-04-24T14:30:43;13.60;99.90
17988;DHT22;9119;50.932;5.342;2023-04-24T14:33:13;13.50;99.90
17988;DHT22;9119;50.932;5.342;2023-04-24T14:35:40;13.30;99.90
17988;DHT22;9119;50.932;5.342;2023-04-24T14:38:07;13.30;99.90
17988;DHT22;9119;50.932;5.342;2023-04-24T14:40:33;13.40;99.90
17988;DHT22;9119;50.932;5.342;2023-04-24T14:42:58;13.40;99.90
17988;DHT22;9119;50.932;5.342;2023-04-24T14:45:25;13.50;99.90
17988;DHT22;9119;50.932;5.342;2023-04-24T14:47:51;13.60;99.90
17988;DHT22;9119;50.932;5.342;2023-04-24T14:50:17;13.50;99.90
17988;DHT22;9119;50.932;5.342;2023-04-24T14:52:43;13.60;99.90
17988;DHT22;9119;50.932;5.342;2023-04-24T14:55:09;13.50;99.90
17988;DHT22;9119;50.932;5.342;2023-04-24T14:57:35;13.50;99.90
17988;DHT22;9119;50.932;5.342;2023-04-24T15:00:05;13.50;99.90
17988;DHT22;9119;50.932;5.342;2023-04-24T15:02:34;13.70;99.90
17988;DHT22;9119;50.932;5.342;2023-04-24T15:05:02;13.50;99.90
17988;DHT22;9119;50.932;5.342;2023-04-24T15:07:28;13.30;99.90
17988;DHT22;9119;50.932;5.342;2023-04-24T15:09:54;13.30;99.90
17988;DHT22;9119;50.932;5.342;2023-04-24T15:12:20;13.10;99.90
17988;DHT22;9119;50.932;5.342;2023-04-24T15:14:46;13.40;99.90
17988;DHT22;9119;50.932;5.342;2023-04-24T15:17:12;13.70;99.90
17988;DHT22;9119;50.932;5.342;2023-04-24T15:19:37;13.50;99.90
17988;DHT22;9119;50.932;5.342;2023-04-24T15:22:05;13.40;99.90
17988;DHT22;9119;50.932;5.342;2023-04-24T15:24:31;13.60;99.90
17988;DHT22;9119;50.932;5.342;2023-04-24T15:26:56;13.70;99.90
17988;DHT22;9119;50.932;5.342;2023-04-24T15:29:24;13.60;99.90
17988;DHT22;9119;50.932;5.342;2023-04-24T15:31:50;13.60;99.90
17988;DHT22;9119;50.932;5.342;2023-04-24T15:34:16;13.60;99.90
17988;DHT22;9119;50.932;5.342;2023-04-24T15:36:41;13.50;99.90
17988;DHT22;9119;50.932;5.342;2023-04-24T15:39:07;13.50;99.90
17988;DHT22;9119;50.932;5.342;2023-04-24T15:41:33;13.40;99.90
17988;DHT22;9119;50.932;5.342;2023-04-24T15:43:59;13.20;99.90
17988;DHT22;9119;50.932;5.342;2023-04-24T15:46:25;12.80;99.90
17988;DHT22;9119;50.932;5.342;2023-04-24T15:48:51;12.80;99.90
17988;DHT22;9119;50.932;5.342;2023-04-24T15:51:16;12.80;99.90
17988;DHT22;9119;50.932;5.342;2023-04-24T15:53:42;12.80;99.90
17988;DHT22;9119;50.932;5.342;2023-04-24T15:56:08;12.80;99.90
17988;DHT22;9119;50.932;5.342;2023-04-24T15:58:34;12.70;99.90
17988;DHT22;9119;50.932;5.342;2023-04-24T16:01:00;12.90;99.90
17988;DHT22;9119;50.932;5.342;2023-04-24T16:03:25;12.80;99.90
17988;DHT22;9119;50.932;5.342;2023-04-24T16:05:53;12.60;99.90
17988;DHT22;9119;50.932;5.342;2023-04-24T16:08:19;12.60;99.90